SUMU/MVD METAR and TAF weather

Enter ICAO airport designator
Station Type Date Time Source
SUMU METAR 2022/06/25 22:00 UTC NOAA

SUMU 252200Z 00000KT 9999 SCT020 07/03 Q1030 NOSIG


Station Type Date Time Source
SUMU Decoded METAR 2022/06/25 22:00 UTC NOAA

Carrasco, Uruguay (SUMU) 34-50S 056-00W 32M
Jun 25, 2022 - 06:00 PM EDT / 2022.06.25 2200 UTC
Wind: Calm:0
Visibility: greater than 7 mile(s):0
Sky conditions: partly cloudy
Temperature: 44 F (7 C)
Dew Point: 37 F (3 C)
Relative Humidity: 75%
Pressure (altimeter): 30.42 in. Hg (1030 hPa)
ob: SUMU 252200Z 00000KT 9999 SCT020 07/03 Q1030 NOSIG
cycle: 22

Station Type Date Time Source
SUMU TAF 2022/06/25 18:42 UTC NOAA

TAF SUMU 251730Z 2518/2618 21010KT 9999 SCT013 BKN200 TX10/2618Z TN05/2610Z
TEMPO 2518/2522 RADZ BKN010

Example: see airport list